Time;durP1;ratioP1;P1;durP2;ratioP2;P2;SDS_P1;SDS_P2;PMS_P1;PMS_P2;Temp;Humidity;BMP_temperature;BMP_pressure;BME280_temperature;BME280_humidity;BME280_pressure;Samples;Min_cycle;Max_cycle;Signal;HPM_P1;HPM_P2
2022/04/11 00:00:59;;;;;;;9.50;5.60;;;;;;;;;;4391364;32;20011;-78
2022/04/11 00:03:25;;;;;;;;;;;;;;;;;;4405564;32;20425;-80
2022/04/11 00:05:50;;;;;;;10.30;5.35;;;;;;;;;;4394584;32;19937;-79
2022/04/11 00:08:16;;;;;;;;;;;;;;;;;;4408591;32;20120;-80
2022/04/11 00:10:41;;;;;;;13.52;5.70;;;;;;;;;;4409180;32;19952;-79
2022/04/11 00:13:06;;;;;;;;;;;;;;;;;;4407680;32;20019;-79
2022/04/11 00:15:33;;;;;;;11.18;5.18;;;;;;;;;;4409623;32;19971;-78
2022/04/11 00:17:59;;;;;;;12.23;5.53;;;;;;;;;;4395497;32;20139;-79
2022/04/11 00:20:24;;;;;;;9.52;5.97;;;;;;;;;;4395221;32;20030;-79
2022/04/11 00:22:50;;;;;;;9.30;5.35;;;;;;;;;;4395309;32;20483;-79
2022/04/11 00:25:15;;;;;;;;;;;;;;;;;;4409088;32;20053;-79
2022/04/11 00:27:41;;;;;;;11.80;5.35;;;;;;;;;;4393710;32;19954;-78
2022/04/11 00:30:07;;;;;;;12.48;5.78;;;;;;;;;;4407333;32;20407;-80
2022/04/11 00:32:32;;;;;;;;;;;;;;;;;;4393968;32;20049;-79
2022/04/11 00:34:57;;;;;;;12.98;5.65;;;;;;;;;;4407324;32;19997;-79
2022/04/11 00:37:22;;;;;;;;;;;;;;;;;;4395085;32;20057;-79
2022/04/11 00:39:48;;;;;;;8.75;4.65;;;;;;;;;;4408726;32;19933;-79
2022/04/11 00:42:16;;;;;;;;;;;;;;;;;;4393476;32;20050;-79
2022/04/11 00:44:41;;;;;;;8.40;5.20;;;;;;;;;;4407113;32;19949;-79
2022/04/11 00:47:06;;;;;;;;;;;;;;;;;;4408156;32;20026;-78
2022/04/11 00:49:31;;;;;;;12.18;5.50;;;;;;;;;;4406552;32;19988;-78
2022/04/11 00:51:56;;;;;;;;;;;;;;;;;;4407029;32;20118;-79
2022/04/11 00:54:22;;;;;;;9.02;6.15;;;;;;;;;;4406613;32;19938;-79
2022/04/11 00:56:47;;;;;;;;;;;;;;;;;;4407557;32;20347;-78
2022/04/11 00:59:15;;;;;;;8.00;5.38;;;;;;;;;;4407201;32;19951;-80
2022/04/11 01:01:40;;;;;;;8.02;5.05;;;;;;;;;;4394973;32;20034;-80
2022/04/11 01:04:05;;;;;;;7.72;5.22;;;;;;;;;;4408776;32;20102;-79
2022/04/11 01:06:31;;;;;;;;;;;;;;;;;;4406851;32;20030;-79
2022/04/11 01:08:57;;;;;;;11.80;5.75;;;;;;;;;;4393992;32;19937;-78
2022/04/11 01:11:22;;;;;;;13.13;6.80;;;;;;;;;;4393454;32;20452;-79
2022/04/11 01:13:48;;;;;;;10.95;6.07;;;;;;;;;;4407949;32;20022;-79
2022/04/11 01:16:13;;;;;;;;;;;;;;;;;;4407452;32;20083;-80
2022/04/11 01:18:38;;;;;;;15.73;5.93;;;;;;;;;;4393873;32;19948;-79
2022/04/11 01:21:04;;;;;;;;;;;;;;;;;;4406425;32;20092;-79
2022/04/11 01:23:29;;;;;;;11.85;6.50;;;;;;;;;;4406898;32;20304;-79
2022/04/11 01:25:54;;;;;;;;;;;;;;;;;;4394410;32;20556;-79
2022/04/11 01:28:20;;;;;;;11.95;6.10;;;;;;;;;;4392565;32;19952;-78
2022/04/11 01:30:45;;;;;;;;;;;;;;;;;;4407804;32;20022;-79
2022/04/11 01:33:14;;;;;;;11.23;6.12;;;;;;;;;;4405855;32;20272;-78
2022/04/11 01:35:39;;;;;;;9.43;5.93;;;;;;;;;;4407843;32;20065;-79
2022/04/11 01:38:04;;;;;;;13.68;6.57;;;;;;;;;;4406176;32;20027;-79
2022/04/11 01:40:29;;;;;;;;;;;;;;;;;;4393080;32;20034;-79
2022/04/11 01:42:54;;;;;;;8.48;6.32;;;;;;;;;;4407805;32;19980;-79
2022/04/11 01:45:19;;;;;;;;;;;;;;;;;;4407594;32;20076;-79
2022/04/11 01:47:46;;;;;;;11.70;6.37;;;;;;;;;;4407784;32;19933;-78
2022/04/11 01:50:11;;;;;;;10.88;6.60;;;;;;;;;;4405959;32;20112;-78
2022/04/11 01:52:36;;;;;;;12.65;5.90;;;;;;;;;;4406443;32;20031;-77
2022/04/11 01:55:02;;;;;;;;;;;;;;;;;;4407866;32;20030;-79
2022/04/11 01:57:27;;;;;;;14.30;6.30;;;;;;;;;;4405816;32;19942;-79
2022/04/11 01:59:52;;;;;;;;;;;;;;;;;;4408541;32;20141;-79
2022/04/11 02:02:17;;;;;;;13.25;6.87;;;;;;;;;;4393400;32;19937;-78
2022/04/11 02:04:43;;;;;;;;;;;;;;;;;;4392544;32;20027;-79
2022/04/11 02:07:08;;;;;;;13.55;7.22;;;;;;;;;;4407020;32;19937;-79
2022/04/11 02:09:33;;;;;;;;;;;;;;;;;;4405792;32;20076;-78
2022/04/11 02:11:58;;;;;;;12.95;7.28;;;;;;;;;;4391909;32;19954;-79
2022/04/11 02:14:23;;;;;;;;;;;;;;;;;;4406465;32;20433;-79
2022/04/11 02:16:48;;;;;;;11.93;6.65;;;;;;;;;;4391976;32;19957;-79
2022/04/11 02:19:13;;;;;;;;;;;;;;;;;;4406269;32;20449;-79
2022/04/11 02:21:38;;;;;;;11.95;7.43;;;;;;;;;;4393278;32;19946;-79
2022/04/11 02:24:04;;;;;;;;;;;;;;;;;;4392980;32;20084;-79
2022/04/11 02:26:29;;;;;;;14.73;8.20;;;;;;;;;;4404688;32;19937;-79
2022/04/11 02:28:54;;;;;;;14.23;7.20;;;;;;;;;;4405407;32;20116;-80
2022/04/11 02:31:19;;;;;;;;;;;;;;;;;;4407652;32;20022;-79
2022/04/11 02:33:44;;;;;;;13.90;8.18;;;;;;;;;;4391809;32;20002;-77
2022/04/11 02:36:09;;;;;;;;;;;;;;;;;;4405400;32;20018;-78
2022/04/11 02:38:34;;;;;;;13.32;8.60;;;;;;;;;;4405822;32;19934;-78
2022/04/11 02:40:59;;;;;;;12.27;7.50;;;;;;;;;;4405446;32;20121;-79
2022/04/11 02:43:25;;;;;;;;;;;;;;;;;;4391992;32;20026;-77
2022/04/11 02:45:50;;;;;;;11.77;8.10;;;;;;;;;;4405180;32;19952;-78
2022/04/11 02:48:15;;;;;;;12.40;7.87;;;;;;;;;;4405508;32;20027;-79
2022/04/11 02:50:40;;;;;;;14.70;8.55;;;;;;;;;;4411088;32;20198;-78
2022/04/11 02:53:05;;;;;;;;;;;;;;;;;;4403666;32;20113;-78
2022/04/11 02:55:31;;;;;;;11.55;8.20;;;;;;;;;;4414822;32;19952;-78
2022/04/11 02:57:56;;;;;;;;;;;;;;;;;;4417242;32;20023;-79
2022/04/11 03:00:21;;;;;;;12.60;9.05;;;;;;;;;;4416056;32;19967;-78
2022/04/11 03:02:46;;;;;;;;;;;;;;;;;;4415737;32;20034;-78
2022/04/11 03:05:11;;;;;;;16.60;8.63;;;;;;;;;;4417000;32;19952;-79
2022/04/11 03:07:36;;;;;;;;;;;;;;;;;;4403008;32;20022;-79
2022/04/11 03:10:02;;;;;;;16.30;9.27;;;;;;;;;;4415816;32;19942;-79
2022/04/11 03:12:27;;;;;;;14.15;9.80;;;;;;;;;;4411208;32;20122;-79
2022/04/11 03:14:52;;;;;;;;;;;;;;;;;;4395764;32;20378;-80
2022/04/11 03:17:17;;;;;;;12.25;8.80;;;;;;;;;;4396007;32;20259;-79
2022/04/11 03:19:43;;;;;;;;;;;;;;;;;;4410353;32;20249;-78
2022/04/11 03:22:08;;;;;;;15.05;9.23;;;;;;;;;;4407097;32;19934;-78
2022/04/11 03:24:33;;;;;;;14.90;8.98;;;;;;;;;;4408130;32;20223;-79
2022/04/11 03:26:58;;;;;;;;;;;;;;;;;;4407457;32;20026;-78
2022/04/11 03:29:24;;;;;;;13.15;9.57;;;;;;;;;;4405438;32;19973;-78
2022/04/11 03:31:49;;;;;;;;;;;;;;;;;;4392601;32;20053;-79
2022/04/11 03:34:14;;;;;;;16.10;9.98;;;;;;;;;;4406890;32;19976;-79
2022/04/11 03:36:39;;;;;;;;;;;;;;;;;;4391925;32;20149;-80
2022/04/11 03:39:05;;;;;;;17.48;10.20;;;;;;;;;;4394197;32;19969;-77
2022/04/11 03:41:30;;;;;;;;;;;;;;;;;;4410229;32;20122;-79
2022/04/11 03:43:55;;;;;;;18.23;9.63;;;;;;;;;;4394997;32;20331;-80
2022/04/11 03:46:20;;;;;;;14.77;10.07;;;;;;;;;;4409749;32;20435;-79
2022/04/11 03:48:45;;;;;;;19.42;11.77;;;;;;;;;;4409329;32;20018;-78
2022/04/11 03:51:10;;;;;;;;;;;;;;;;;;4408817;32;20085;-78
2022/04/11 03:53:36;;;;;;;15.55;10.13;;;;;;;;;;4394716;32;19964;-79
2022/04/11 03:56:01;;;;;;;;;;;;;;;;;;4394760;32;20026;-79
2022/04/11 03:58:26;;;;;;;16.33;9.82;;;;;;;;;;4409214;32;19956;-79
2022/04/11 04:00:51;;;;;;;;;;;;;;;;;;4394521;32;20352;-78
2022/04/11 04:03:16;;;;;;;19.62;12.48;;;;;;;;;;4409443;32;19938;-79
2022/04/11 04:05:41;;;;;;;;;;;;;;;;;;4408144;32;20114;-79
2022/04/11 04:08:07;;;;;;;20.27;10.90;;;;;;;;;;4409175;32;20308;-80
2022/04/11 04:10:32;;;;;;;;;;;;;;;;;;4395683;32;20070;-79
2022/04/11 04:12:58;;;;;;;16.73;9.88;;;;;;;;;;4406418;32;19945;-78
2022/04/11 04:15:23;;;;;;;;;;;;;;;;;;4393060;32;20424;-79
2022/04/11 04:17:48;;;;;;;20.05;12.25;;;;;;;;;;4380258;32;20341;-78
2022/04/11 04:20:13;;;;;;;;;;;;;;;;;;4396098;32;20054;-79
2022/04/11 04:22:38;;;;;;;13.52;10.45;;;;;;;;;;4409432;32;19944;-79
2022/04/11 04:25:04;;;;;;;;;;;;;;;;;;4407453;32;20488;-79
2022/04/11 04:27:29;;;;;;;16.35;10.73;;;;;;;;;;4394146;32;19981;-79
2022/04/11 04:29:54;;;;;;;;;;;;;;;;;;4395593;32;20438;-79
2022/04/11 04:32:20;;;;;;;19.00;11.50;;;;;;;;;;4407451;32;19960;-79
2022/04/11 04:34:45;;;;;;;16.05;11.35;;;;;;;;;;4395033;32;20076;-79
2022/04/11 04:37:10;;;;;;;;;;;;;;;;;;4396021;32;20027;-78
2022/04/11 04:39:36;;;;;;;17.17;11.05;;;;;;;;;;4392807;32;19938;-80
2022/04/11 04:42:01;;;;;;;;;;;;;;;;;;4409303;32;20167;-79
2022/04/11 04:44:27;;;;;;;21.62;11.77;;;;;;;;;;4394548;32;20289;-79
2022/04/11 04:46:52;;;;;;;;;;;;;;;;;;4407197;32;20045;-79
2022/04/11 04:49:17;;;;;;;18.02;11.40;;;;;;;;;;4408707;32;19942;-78
2022/04/11 04:51:42;;;;;;;;;;;;;;;;;;4395001;32;20026;-80
2022/04/11 04:54:07;;;;;;;14.95;10.80;;;;;;;;;;4407630;32;19938;-79
2022/04/11 04:56:32;;;;;;;;;;;;;;;;;;4409193;32;20141;-80
2022/04/11 04:58:57;;;;;;;20.85;13.55;;;;;;;;;;4393601;32;19971;-79
2022/04/11 05:01:22;;;;;;;;;;;;;;;;;;4394151;32;20056;-79
2022/04/11 05:03:48;;;;;;;20.42;12.60;;;;;;;;;;4409168;32;19934;-79
2022/04/11 05:06:13;;;;;;;;;;;;;;;;;;4393354;32;20091;-78
2022/04/11 05:08:38;;;;;;;21.48;12.02;;;;;;;;;;4394248;32;19952;-79
2022/04/11 05:11:03;;;;;;;;;;;;;;;;;;4409064;32;20122;-79
2022/04/11 05:13:28;;;;;;;21.17;12.37;;;;;;;;;;4392963;32;19937;-78
2022/04/11 05:15:53;;;;;;;;;;;;;;;;;;4408528;32;20496;-77
2022/04/11 05:18:18;;;;;;;20.25;11.77;;;;;;;;;;4406536;32;19954;-78
2022/04/11 05:20:43;;;;;;;;;;;;;;;;;;4406470;32;20049;-79
2022/04/11 05:23:09;;;;;;;28.42;12.80;;;;;;;;;;4407252;32;19949;-79
2022/04/11 05:25:34;;;;;;;;;;;;;;;;;;4392683;32;20121;-79
2022/04/11 05:27:59;;;;;;;25.23;12.85;;;;;;;;;;4407220;32;19952;-78
2022/04/11 05:30:24;;;;;;;;;;;;;;;;;;4392588;32;20067;-77
2022/04/11 05:32:49;;;;;;;23.30;12.43;;;;;;;;;;4383112;32;19957;-77
2022/04/11 05:35:14;;;;;;;;;;;;;;;;;;4390059;32;20101;-78
2022/04/11 05:37:40;;;;;;;24.40;13.23;;;;;;;;;;4392456;32;20357;-77
2022/04/11 05:40:05;;;;;;;25.50;12.52;;;;;;;;;;4404571;32;20165;-77
2022/04/11 05:42:31;;;;;;;;;;;;;;;;;;4407478;32;20057;-78
2022/04/11 05:44:56;;;;;;;25.62;13.98;;;;;;;;;;4390875;32;19941;-77
2022/04/11 05:47:21;;;;;;;;;;;;;;;;;;4392240;32;20022;-77
2022/04/11 05:49:46;;;;;;;21.75;13.38;;;;;;;;;;4407731;32;20368;-78
2022/04/11 05:52:11;;;;;;;;;;;;;;;;;;4392030;32;20067;-78
2022/04/11 05:54:38;;;;;;;18.58;13.48;;;;;;;;;;4406644;32;19937;-77
2022/04/11 05:57:04;;;;;;;24.98;13.27;;;;;;;;;;4405320;32;20156;-77
2022/04/11 05:59:29;;;;;;;;;;;;;;;;;;4391982;32;20373;-78
2022/04/11 06:01:54;;;;;;;24.02;16.12;;;;;;;;;;4391268;32;20012;-77
2022/04/11 06:04:19;;;;;;;;;;;;;;;;;;4391988;32;20030;-77
2022/04/11 06:06:44;;;;;;;22.50;13.85;;;;;;;;;;4391339;32;20349;-77
2022/04/11 06:09:09;;;;;;;;;;;;;;;;;;4406324;32;20090;-78
2022/04/11 06:11:34;;;;;;;24.37;14.73;;;;;;;;;;4405682;32;20298;-77
2022/04/11 06:13:59;;;;;;;;;;;;;;;;;;4405160;32;20040;-78
2022/04/11 06:16:25;;;;;;;23.33;14.23;;;;;;;;;;4390949;32;19965;-79
2022/04/11 06:18:50;;;;;;;;;;;;;;;;;;4405669;32;20148;-78
2022/04/11 06:21:15;;;;;;;25.02;14.87;;;;;;;;;;4391072;32;19952;-78
2022/04/11 06:23:40;;;;;;;;;;;;;;;;;;4406224;32;20026;-78
2022/04/11 06:26:05;;;;;;;26.10;14.40;;;;;;;;;;4405637;32;19960;-78
2022/04/11 06:28:30;;;;;;;;;;;;;;;;;;4390963;32;20087;-77
2022/04/11 06:30:55;;;;;;;22.90;16.50;;;;;;;;;;4390820;32;20032;-79
2022/04/11 06:33:20;;;;;;;;;;;;;;;;;;4406830;32;20122;-78
2022/04/11 06:35:46;;;;;;;21.25;15.65;;;;;;;;;;4405258;32;20286;-78
2022/04/11 06:38:11;;;;;;;;;;;;;;;;;;4405463;32;20031;-78
2022/04/11 06:40:36;;;;;;;23.73;15.48;;;;;;;;;;4404954;32;19980;-77
2022/04/11 06:43:01;;;;;;;;;;;;;;;;;;4406857;32;20462;-77
2022/04/11 06:45:27;;;;;;;24.42;15.48;;;;;;;;;;4404772;32;19949;-78
2022/04/11 06:47:52;;;;;;;;;;;;;;;;;;4407031;32;20018;-79
2022/04/11 06:50:17;;;;;;;24.58;15.52;;;;;;;;;;4406156;32;20329;-76
2022/04/11 06:52:42;;;;;;;;;;;;;;;;;;4405188;32;20118;-77
2022/04/11 06:55:08;;;;;;;28.60;15.90;;;;;;;;;;4404722;32;19945;-78
2022/04/11 06:57:33;;;;;;;;;;;;;;;;;;4405306;32;20120;-78
2022/04/11 06:59:58;;;;;;;21.37;15.30;;;;;;;;;;4390943;32;19937;-78
2022/04/11 07:02:23;;;;;;;;;;;;;;;;;;4391265;32;20414;-78
2022/04/11 07:04:48;;;;;;;20.50;14.43;;;;;;;;;;4390946;32;20362;-77
2022/04/11 07:07:13;;;;;;;23.42;15.35;;;;;;;;;;4404785;32;20122;-77
2022/04/11 07:09:39;;;;;;;;;;;;;;;;;;4405440;32;20171;-77
2022/04/11 07:12:04;;;;;;;23.27;16.80;;;;;;;;;;4392609;32;19984;-78
2022/04/11 07:14:29;;;;;;;;;;;;;;;;;;4390780;32;20023;-78
2022/04/11 07:16:54;;;;;;;20.20;15.07;;;;;;;;;;4406003;32;19973;-78
2022/04/11 07:19:20;;;;;;;;;;;;;;;;;;4392261;32;20444;-78
2022/04/11 07:21:46;;;;;;;25.45;15.38;;;;;;;;;;4405928;32;20319;-77
2022/04/11 07:24:11;;;;;;;;;;;;;;;;;;4391303;32;20014;-78
2022/04/11 07:26:36;;;;;;;19.92;15.10;;;;;;;;;;4391968;32;19952;-78
2022/04/11 07:29:01;;;;;;;;;;;;;;;;;;4392134;32;20375;-78
2022/04/11 07:31:27;;;;;;;19.83;14.48;;;;;;;;;;4405440;32;20079;-78
2022/04/11 07:33:52;;;;;;;;;;;;;;;;;;4406807;32;20026;-78
2022/04/11 07:36:17;;;;;;;17.00;13.75;;;;;;;;;;4404983;32;19992;-77
2022/04/11 07:38:42;;;;;;;;;;;;;;;;;;4390951;32;20122;-79
2022/04/11 07:41:08;;;;;;;22.48;15.00;;;;;;;;;;4405264;32;20314;-79
2022/04/11 07:43:33;;;;;;;;;;;;;;;;;;4391290;32;20128;-79
2022/04/11 07:46:01;;;;;;;24.30;14.95;;;;;;;;;;4406619;32;19978;-77
2022/04/11 07:48:26;;;;;;;18.92;13.98;;;;;;;;;;4403647;32;20034;-78
2022/04/11 07:50:51;;;;;;;;;;;;;;;;;;4389914;32;20076;-76
2022/04/11 07:53:16;;;;;;;31.85;14.85;;;;;;;;;;4399616;32;19954;-79
2022/04/11 07:55:41;;;;;;;;;;;;;;;;;;4400092;32;20030;-76
2022/04/11 07:58:06;;;;;;;17.48;12.63;;;;;;;;;;4403655;32;19942;-77
2022/04/11 08:00:31;;;;;;;;;;;;;;;;;;4402755;32;20057;-78
2022/04/11 08:02:57;;;;;;;18.75;13.32;;;;;;;;;;4405034;32;19942;-78
2022/04/11 08:05:22;;;;;;;;;;;;;;;;;;4398595;32;20039;-78
2022/04/11 08:07:48;;;;;;;16.87;13.07;;;;;;;;;;4382949;32;19973;-78
2022/04/11 08:10:13;;;;;;;;;;;;;;;;;;4398044;32;20469;-77
2022/04/11 08:12:39;;;;;;;15.05;11.73;;;;;;;;;;4397705;32;19976;-77
2022/04/11 08:15:04;;;;;;;;;;;;;;;;;;4400275;32;20069;-77
2022/04/11 08:17:29;;;;;;;17.12;12.73;;;;;;;;;;4383271;32;19942;-79
2022/04/11 08:19:54;;;;;;;;;;;;;;;;;;4395107;32;20158;-78
2022/04/11 08:22:19;;;;;;;15.77;10.88;;;;;;;;;;4398990;32;19941;-77
2022/04/11 08:24:44;;;;;;;;;;;;;;;;;;4396334;32;20086;-77
2022/04/11 08:27:10;;;;;;;17.45;11.98;;;;;;;;;;4397895;32;19941;-77
2022/04/11 08:29:35;;;;;;;;;;;;;;;;;;4386233;32;20056;-78
2022/04/11 08:32:00;;;;;;;13.98;10.30;;;;;;;;;;4397615;32;19946;-78
2022/04/11 08:34:26;;;;;;;;;;;;;;;;;;4385712;32;20417;-78
2022/04/11 08:36:51;;;;;;;13.98;9.15;;;;;;;;;;4399241;32;19938;-77
2022/04/11 08:39:16;;;;;;;;;;;;;;;;;;4400325;32;20468;-78
2022/04/11 08:41:41;;;;;;;14.90;11.00;;;;;;;;;;4399702;32;19937;-78
2022/04/11 08:44:06;;;;;;;;;;;;;;;;;;4399176;32;20372;-78
2022/04/11 08:46:33;;;;;;;14.25;10.15;;;;;;;;;;4398737;32;19941;-78
2022/04/11 08:48:59;;;;;;;16.27;9.73;;;;;;;;;;4397937;32;20046;-78
2022/04/11 08:51:25;;;;;;;13.68;9.60;;;;;;;;;;4398331;32;20496;-77
2022/04/11 08:53:50;;;;;;;;;;;;;;;;;;4384817;32;20026;-77
2022/04/11 08:56:15;;;;;;;11.52;8.68;;;;;;;;;;4397586;32;19996;-78
2022/04/11 08:58:40;;;;;;;;;;;;;;;;;;4384066;32;20450;-78
2022/04/11 09:01:06;;;;;;;14.85;8.93;;;;;;;;;;4397275;32;19945;-78
2022/04/11 09:03:31;;;;;;;;;;;;;;;;;;4400145;32;20075;-78
2022/04/11 09:06:09;;;;;;;9.98;7.53;;;;;;;;;;4399511;32;20005;-77
2022/04/11 09:09:00;;;;;;;14.45;7.03;;;;;;;;;;4385454;32;20053;-77
2022/04/11 09:11:30;;;;;;;11.43;7.15;;;;;;;;;;4382741;32;20474;-78
2022/04/11 09:13:55;;;;;;;16.00;7.80;;;;;;;;;;4396597;32;20054;-79
2022/04/11 09:16:21;;;;;;;;;;;;;;;;;;4397518;32;20121;-77
2022/04/11 09:18:46;;;;;;;15.40;6.68;;;;;;;;;;4402268;32;19957;-77
2022/04/11 09:21:11;;;;;;;;;;;;;;;;;;4406300;32;20357;-77
2022/04/11 09:23:37;;;;;;;11.40;5.80;;;;;;;;;;4391339;32;20005;-79
2022/04/11 09:26:02;;;;;;;;;;;;;;;;;;4392705;32;20149;-77
2022/04/11 09:28:27;;;;;;;13.93;7.60;;;;;;;;;;4406394;32;19933;-77
2022/04/11 09:30:52;;;;;;;;;;;;;;;;;;4392677;32;20368;-78
2022/04/11 09:33:17;;;;;;;10.45;6.03;;;;;;;;;;4393806;32;19961;-78
2022/04/11 09:35:42;;;;;;;;;;;;;;;;;;4393860;32;20413;-78
2022/04/11 09:38:10;;;;;;;10.93;5.20;;;;;;;;;;4387546;32;19941;-78
2022/04/11 09:40:39;;;;;;;7.62;5.15;;;;;;;;;;4396657;32;20499;-78
2022/04/11 09:43:04;;;;;;;10.55;5.55;;;;;;;;;;4383294;32;20464;-78
2022/04/11 09:45:29;;;;;;;;;;;;;;;;;;4396290;32;20048;-78
2022/04/11 09:47:58;;;;;;;14.40;5.87;;;;;;;;;;4386166;32;19977;-78
2022/04/11 09:50:24;;;;;;;13.07;5.65;;;;;;;;;;4384153;32;20084;-78
2022/04/11 09:52:49;;;;;;;;;;;;;;;;;;4394419;32;20038;-78
2022/04/11 09:55:14;;;;;;;9.57;6.15;;;;;;;;;;4374946;32;19960;-78
2022/04/11 09:57:39;;;;;;;;;;;;;;;;;;4377967;32;20042;-79
2022/04/11 10:00:05;;;;;;;10.60;5.95;;;;;;;;;;4377284;32;19978;-79
2022/04/11 10:02:30;;;;;;;;;;;;;;;;;;4395959;32;20087;-78
2022/04/11 10:04:56;;;;;;;9.57;4.72;;;;;;;;;;4393120;32;19975;-78
2022/04/11 10:07:21;;;;;;;9.20;4.95;;;;;;;;;;4393045;32;20461;-77
2022/04/11 10:09:47;;;;;;;11.50;5.55;;;;;;;;;;4392763;32;20023;-78
2022/04/11 10:12:12;;;;;;;15.82;5.53;;;;;;;;;;4407299;32;20098;-77
2022/04/11 10:14:37;;;;;;;;;;;;;;;;;;4407293;32;20030;-78
2022/04/11 10:17:03;;;;;;;14.63;5.72;;;;;;;;;;4392570;32;19975;-78
2022/04/11 10:19:29;;;;;;;;;;;;;;;;;;4407563;32;20125;-77
2022/04/11 10:21:56;;;;;;;12.75;6.00;;;;;;;;;;4408598;32;20543;-79
2022/04/11 10:24:35;;;;;;;8.85;5.47;;;;;;;;;;4407379;32;20098;-78
2022/04/11 10:27:19;;;;;;;17.90;6.82;;;;;;;;;;4405835;32;20072;-77
2022/04/11 10:29:44;;;;;;;7.93;5.62;;;;;;;;;;4393991;32;20095;-78
2022/04/11 10:32:11;;;;;;;10.45;5.40;;;;;;;;;;4406475;32;20384;-78
2022/04/11 10:34:44;;;;;;;7.75;5.87;;;;;;;;;;4405739;32;20090;-79
2022/04/11 10:37:10;;;;;;;10.73;4.90;;;;;;;;;;4406255;32;20030;-78
2022/04/11 10:39:36;;;;;;;11.73;6.32;;;;;;;;;;4405809;32;20112;-77
2022/04/11 10:42:03;;;;;;;8.38;5.15;;;;;;;;;;4392402;32;20027;-78
2022/04/11 10:44:32;;;;;;;10.30;5.57;;;;;;;;;;4405554;32;20353;-78
2022/04/11 10:47:09;;;;;;;12.35;5.62;;;;;;;;;;4406171;32;20026;-77
2022/04/11 10:49:50;;;;;;;9.18;5.37;;;;;;;;;;4404882;32;20152;-79
2022/04/11 10:52:28;;;;;;;12.43;5.15;;;;;;;;;;4390974;32;20089;-78
2022/04/11 10:54:54;;;;;;;14.57;5.07;;;;;;;;;;4406051;32;20030;-78
2022/04/11 10:57:35;;;;;;;8.77;4.90;;;;;;;;;;4406267;32;20084;-78
2022/04/11 11:00:21;;;;;;;10.82;4.93;;;;;;;;;;4404974;32;20025;-79
2022/04/11 11:02:52;;;;;;;10.68;4.97;;;;;;;;;;4403892;32;20034;-79
2022/04/11 11:05:27;;;;;;;8.88;4.80;;;;;;;;;;4404969;32;20085;-77
2022/04/11 11:08:10;;;;;;;8.95;5.10;;;;;;;;;;4405211;32;20442;-79
2022/04/11 11:10:42;;;;;;;10.60;6.15;;;;;;;;;;4406264;32;20034;-79
2022/04/11 11:13:26;;;;;;;9.02;5.10;;;;;;;;;;4398150;32;20023;-79
2022/04/11 11:15:52;;;;;;;9.82;5.05;;;;;;;;;;4398260;32;20026;-79
2022/04/11 11:18:17;;;;;;;9.35;4.93;;;;;;;;;;4383371;32;20117;-79
2022/04/11 11:20:52;;;;;;;11.17;5.83;;;;;;;;;;4384961;32;20061;-78
2022/04/11 11:23:20;;;;;;;10.48;5.32;;;;;;;;;;4384106;32;20428;-79
2022/04/11 11:25:47;;;;;;;12.57;5.95;;;;;;;;;;4397604;32;20132;-79
2022/04/11 11:28:13;;;;;;;14.25;6.00;;;;;;;;;;4396736;32;20419;-78
2022/04/11 11:30:38;;;;;;;8.82;4.85;;;;;;;;;;4398648;32;20095;-77
2022/04/11 11:33:06;;;;;;;12.50;5.90;;;;;;;;;;4395803;32;20400;-78
2022/04/11 11:35:31;;;;;;;9.80;5.40;;;;;;;;;;4394695;32;20107;-78
2022/04/11 11:38:03;;;;;;;7.83;4.80;;;;;;;;;;4398577;32;20412;-78
2022/04/11 11:40:29;;;;;;;10.30;5.72;;;;;;;;;;4370672;32;20243;-78
2022/04/11 11:42:56;;;;;;;11.35;5.82;;;;;;;;;;4384351;32;20093;-78
2022/04/11 11:45:27;;;;;;;11.52;5.55;;;;;;;;;;4390592;32;20101;-78
2022/04/11 11:47:52;;;;;;;11.93;5.53;;;;;;;;;;4395997;32;20038;-77
2022/04/11 11:50:18;;;;;;;9.27;5.87;;;;;;;;;;4397432;32;20124;-77
2022/04/11 11:52:45;;;;;;;10.05;6.05;;;;;;;;;;4383745;32;20497;-78
2022/04/11 11:55:10;;;;;;;10.60;5.93;;;;;;;;;;4386094;32;20034;-79
2022/04/11 11:57:36;;;;;;;8.10;5.73;;;;;;;;;;4389046;32;20160;-79
2022/04/11 12:00:08;;;;;;;9.40;5.82;;;;;;;;;;4396135;32;20133;-77
2022/04/11 12:05:21;;;;;;;9.85;5.07;;;;;;;;;;4398526;32;20069;-79
2022/04/11 12:07:47;;;;;;;13.68;5.03;;;;;;;;;;4399514;32;20116;-79
2022/04/11 12:10:13;;;;;;;8.70;4.87;;;;;;;;;;4399761;32;20776;-78
2022/04/11 12:12:38;;;;;;;9.82;5.20;;;;;;;;;;4383483;32;20107;-78
2022/04/11 12:15:06;;;;;;;8.75;5.20;;;;;;;;;;4383358;32;20133;-79
2022/04/11 12:17:39;;;;;;;8.10;4.95;;;;;;;;;;4403713;32;20322;-79
2022/04/11 12:20:05;;;;;;;9.63;5.20;;;;;;;;;;4372546;32;20031;-79
2022/04/11 12:22:30;;;;;;;10.70;5.10;;;;;;;;;;4386287;32;20483;-78
2022/04/11 12:24:55;;;;;;;6.73;5.27;;;;;;;;;;4382924;32;20069;-78
2022/04/11 12:27:21;;;;;;;8.77;4.57;;;;;;;;;;4389637;32;20482;-78
2022/04/11 12:29:46;;;;;;;8.65;5.12;;;;;;;;;;4390471;32;20149;-79
2022/04/11 12:32:12;;;;;;;10.23;5.30;;;;;;;;;;4392225;32;20391;-79
2022/04/11 12:34:38;;;;;;;9.32;5.30;;;;;;;;;;4391796;32;20078;-78
2022/04/11 12:37:05;;;;;;;8.10;5.60;;;;;;;;;;4392819;32;20121;-79
2022/04/11 12:39:31;;;;;;;11.82;6.20;;;;;;;;;;4380636;32;20090;-76
2022/04/11 12:41:57;;;;;;;9.38;5.35;;;;;;;;;;4383863;32;20080;-77
2022/04/11 12:44:32;;;;;;;11.60;6.00;;;;;;;;;;4400864;32;20049;-78
2022/04/11 12:46:58;;;;;;;10.63;5.70;;;;;;;;;;4389231;32;20088;-78
2022/04/11 12:49:23;;;;;;;9.63;5.85;;;;;;;;;;4403721;32;20027;-78
2022/04/11 12:52:02;;;;;;;12.60;6.72;;;;;;;;;;4398979;32;20133;-78
2022/04/11 12:54:40;;;;;;;10.07;5.20;;;;;;;;;;4399016;32;20058;-78
2022/04/11 12:57:06;;;;;;;8.85;5.62;;;;;;;;;;4400440;32;20030;-79
2022/04/11 12:59:32;;;;;;;7.37;5.82;;;;;;;;;;4400581;32;20088;-78
2022/04/11 13:02:03;;;;;;;6.85;5.43;;;;;;;;;;4405503;32;20475;-77
2022/04/11 13:04:29;;;;;;;17.23;6.28;;;;;;;;;;4393378;32;20038;-79
2022/04/11 13:06:54;;;;;;;12.85;5.90;;;;;;;;;;4405625;32;20142;-79
2022/04/11 13:09:20;;;;;;;7.62;5.50;;;;;;;;;;4408600;32;20026;-77
2022/04/11 13:11:46;;;;;;;9.13;5.75;;;;;;;;;;4407792;32;20065;-78
2022/04/11 13:14:11;;;;;;;11.43;7.32;;;;;;;;;;4394058;32;20372;-79
2022/04/11 13:19:20;;;;;;;14.52;5.90;;;;;;;;;;4408390;32;20041;-77
2022/04/11 13:21:46;;;;;;;8.35;5.43;;;;;;;;;;4394443;32;20356;-77
2022/04/11 13:24:11;;;;;;;10.05;5.30;;;;;;;;;;4393383;32;20023;-79
2022/04/11 13:26:37;;;;;;;8.02;5.55;;;;;;;;;;4407209;32;20026;-77
2022/04/11 13:29:02;;;;;;;10.20;6.47;;;;;;;;;;4394428;32;20052;-78
2022/04/11 13:31:27;;;;;;;9.73;5.93;;;;;;;;;;4392367;32;20076;-78
2022/04/11 13:33:53;;;;;;;9.10;5.80;;;;;;;;;;4401691;32;20026;-78
2022/04/11 13:36:18;;;;;;;8.07;5.10;;;;;;;;;;4398919;32;20057;-78
2022/04/11 13:38:44;;;;;;;8.57;5.32;;;;;;;;;;4397719;32;20080;-78
2022/04/11 13:41:09;;;;;;;8.98;5.80;;;;;;;;;;4395108;32;20199;-80
2022/04/11 13:43:34;;;;;;;11.52;6.25;;;;;;;;;;4383519;32;20066;-78
2022/04/11 13:46:01;;;;;;;13.70;6.00;;;;;;;;;;4396944;32;20035;-78
2022/04/11 13:48:26;;;;;;;7.15;5.78;;;;;;;;;;4396909;32;20089;-77
2022/04/11 13:50:51;;;;;;;9.77;5.57;;;;;;;;;;4401232;32;20420;-76
2022/04/11 13:53:17;;;;;;;10.60;5.80;;;;;;;;;;4404059;32;20412;-78
2022/04/11 13:55:42;;;;;;;8.77;5.80;;;;;;;;;;4385717;32;20248;-78
2022/04/11 13:58:07;;;;;;;10.43;6.45;;;;;;;;;;4403712;32;20030;-77
2022/04/11 14:00:33;;;;;;;9.80;5.18;;;;;;;;;;4392250;32;20360;-78
2022/04/11 14:02:58;;;;;;;10.48;5.80;;;;;;;;;;4391062;32;20070;-78
2022/04/11 14:05:23;;;;;;;8.27;5.53;;;;;;;;;;4391957;32;20084;-77
2022/04/11 14:07:49;;;;;;;7.72;4.97;;;;;;;;;;4392347;32;20126;-77
2022/04/11 14:10:15;;;;;;;9.50;5.70;;;;;;;;;;4392042;32;20050;-77
2022/04/11 14:12:40;;;;;;;7.57;5.30;;;;;;;;;;4391022;32;20060;-77
2022/04/11 14:15:06;;;;;;;8.20;5.45;;;;;;;;;;4393658;32;20026;-77
2022/04/11 14:17:31;;;;;;;11.52;6.12;;;;;;;;;;4405817;32;20430;-77
2022/04/11 14:19:56;;;;;;;9.30;5.68;;;;;;;;;;4392379;32;20031;-76
2022/04/11 14:22:21;;;;;;;10.68;5.78;;;;;;;;;;4404360;32;20082;-78
2022/04/11 14:24:46;;;;;;;11.30;5.77;;;;;;;;;;4385121;32;20060;-77
2022/04/11 14:27:12;;;;;;;13.57;6.35;;;;;;;;;;4388266;32;20147;-76
2022/04/11 14:29:37;;;;;;;6.80;5.43;;;;;;;;;;4390729;32;20022;-78
2022/04/11 14:32:03;;;;;;;8.07;5.80;;;;;;;;;;4382135;32;20138;-78
2022/04/11 14:34:28;;;;;;;9.35;6.57;;;;;;;;;;4404658;32;20046;-78
2022/04/11 14:36:53;;;;;;;8.10;5.57;;;;;;;;;;4405716;32;20026;-77
2022/04/11 14:39:19;;;;;;;8.23;5.75;;;;;;;;;;4392185;32;20152;-78
2022/04/11 14:41:44;;;;;;;9.02;6.18;;;;;;;;;;4390665;32;20098;-77
2022/04/11 14:44:09;;;;;;;10.30;6.55;;;;;;;;;;4392006;32;20400;-78
2022/04/11 14:46:34;;;;;;;10.68;6.57;;;;;;;;;;4393535;32;20099;-78
2022/04/11 14:48:59;;;;;;;10.70;6.47;;;;;;;;;;4377865;32;20393;-78
2022/04/11 14:51:25;;;;;;;10.07;6.78;;;;;;;;;;4376056;32;20030;-78
2022/04/11 14:53:50;;;;;;;9.43;6.62;;;;;;;;;;4377921;32;20533;-77
2022/04/11 14:56:15;;;;;;;12.37;7.65;;;;;;;;;;4390667;32;20077;-78
2022/04/11 14:58:40;;;;;;;10.90;6.77;;;;;;;;;;4376003;32;20026;-78
2022/04/11 15:01:07;;;;;;;10.80;7.43;;;;;;;;;;4377265;32;20567;-78
2022/04/11 15:03:32;;;;;;;10.10;7.00;;;;;;;;;;4390955;32;20038;-77
2022/04/11 15:05:57;;;;;;;8.60;6.82;;;;;;;;;;4390703;32;20469;-77